sensor_id;sensor_type;location;lat;lon;timestamp;pressure;altitude;pressure_sealevel;temperature;humidity
9784;BME280;4931;44.874;-1.092;2023-06-05T00:01:10;101352.13;;;17.40;100.00
9784;BME280;4931;44.874;-1.092;2023-06-05T00:03:36;101353.75;;;17.41;100.00
9784;BME280;4931;44.874;-1.092;2023-06-05T00:06:03;101354.38;;;17.38;100.00
9784;BME280;4931;44.874;-1.092;2023-06-05T00:08:28;101355.59;;;17.46;100.00
9784;BME280;4931;44.874;-1.092;2023-06-05T00:10:54;101350.25;;;17.36;100.00
9784;BME280;4931;44.874;-1.092;2023-06-05T00:13:19;101353.13;;;17.45;100.00
9784;BME280;4931;44.874;-1.092;2023-06-05T00:15:45;101353.13;;;17.45;100.00
9784;BME280;4931;44.874;-1.092;2023-06-05T00:18:10;101345.34;;;17.47;100.00
9784;BME280;4931;44.874;-1.092;2023-06-05T00:20:37;101351.53;;;17.30;100.00
9784;BME280;4931;44.874;-1.092;2023-06-05T00:23:02;101351.94;;;17.23;100.00
9784;BME280;4931;44.874;-1.092;2023-06-05T00:25:28;101349.28;;;17.18;100.00
9784;BME280;4931;44.874;-1.092;2023-06-05T00:27:53;101348.47;;;17.17;100.00
9784;BME280;4931;44.874;-1.092;2023-06-05T00:30:19;101344.56;;;17.04;100.00
9784;BME280;4931;44.874;-1.092;2023-06-05T00:32:44;101340.88;;;17.09;100.00
9784;BME280;4931;44.874;-1.092;2023-06-05T00:35:10;101344.56;;;17.04;100.00
9784;BME280;4931;44.874;-1.092;2023-06-05T00:37:35;101334.13;;;17.01;100.00
9784;BME280;4931;44.874;-1.092;2023-06-05T00:40:03;101332.25;;;16.97;100.00
9784;BME280;4931;44.874;-1.092;2023-06-05T00:42:28;101323.44;;;16.95;100.00
9784;BME280;4931;44.874;-1.092;2023-06-05T00:44:54;101328.16;;;16.80;100.00
9784;BME280;4931;44.874;-1.092;2023-06-05T00:47:20;101329.78;;;16.81;100.00
9784;BME280;4931;44.874;-1.092;2023-06-05T00:49:46;101336.78;;;16.79;100.00
9784;BME280;4931;44.874;-1.092;2023-06-05T00:52:12;101341.47;;;16.78;100.00
9784;BME280;4931;44.874;-1.092;2023-06-05T00:54:38;101342.09;;;16.89;100.00
9784;BME280;4931;44.874;-1.092;2023-06-05T00:57:05;101332.69;;;16.90;100.00
9784;BME280;4931;44.874;-1.092;2023-06-05T00:59:33;101335.44;;;16.90;100.00
9784;BME280;4931;44.874;-1.092;2023-06-05T01:02:00;101334.00;;;16.79;100.00
9784;BME280;4931;44.874;-1.092;2023-06-05T01:04:30;101335.53;;;16.71;100.00
9784;BME280;4931;44.874;-1.092;2023-06-05T01:06:58;101334.69;;;16.70;100.00
9784;BME280;4931;44.874;-1.092;2023-06-05T01:09:25;101339.13;;;16.71;100.00
9784;BME280;4931;44.874;-1.092;2023-06-05T01:12:08;101330.81;;;16.71;100.00
9784;BME280;4931;44.874;-1.092;2023-06-05T01:14:37;101332.44;;;16.72;100.00
9784;BME280;4931;44.874;-1.092;2023-06-05T01:17:12;101332.56;;;16.67;100.00
9784;BME280;4931;44.874;-1.092;2023-06-05T01:19:38;101339.03;;;16.63;100.00
9784;BME280;4931;44.874;-1.092;2023-06-05T01:22:04;101338.00;;;16.72;100.00
9784;BME280;4931;44.874;-1.092;2023-06-05T01:24:33;101327.53;;;16.83;100.00
9784;BME280;4931;44.874;-1.092;2023-06-05T01:27:14;101321.38;;;16.86;100.00
9784;BME280;4931;44.874;-1.092;2023-06-05T01:30:02;101330.75;;;16.90;100.00
9784;BME280;4931;44.874;-1.092;2023-06-05T01:32:53;101329.06;;;16.89;100.00
9784;BME280;4931;44.874;-1.092;2023-06-05T01:35:22;101330.94;;;16.94;100.00
9784;BME280;4931;44.874;-1.092;2023-06-05T01:37:54;101329.59;;;16.77;100.00
9784;BME280;4931;44.874;-1.092;2023-06-05T01:40:22;101331.22;;;16.65;100.00
9784;BME280;4931;44.874;-1.092;2023-06-05T01:42:48;101328.22;;;16.61;100.00
9784;BME280;4931;44.874;-1.092;2023-06-05T01:45:16;101323.00;;;16.46;100.00
9784;BME280;4931;44.874;-1.092;2023-06-05T01:47:43;101328.66;;;16.40;100.00
9784;BME280;4931;44.874;-1.092;2023-06-05T01:50:09;101325.66;;;16.37;100.00
9784;BME280;4931;44.874;-1.092;2023-06-05T01:52:38;101323.38;;;16.25;100.00
9784;BME280;4931;44.874;-1.092;2023-06-05T01:55:06;101329.34;;;16.32;100.00
9784;BME280;4931;44.874;-1.092;2023-06-05T01:57:32;101328.44;;;16.37;100.00
9784;BME280;4931;44.874;-1.092;2023-06-05T01:59:59;101320.31;;;16.26;100.00
9784;BME280;4931;44.874;-1.092;2023-06-05T02:02:32;101324.41;;;16.29;100.00
9784;BME280;4931;44.874;-1.092;2023-06-05T02:04:58;101328.22;;;16.33;100.00
9784;BME280;4931;44.874;-1.092;2023-06-05T02:07:24;101316.63;;;16.31;100.00
9784;BME280;4931;44.874;-1.092;2023-06-05T02:09:50;101318.47;;;16.22;100.00
9784;BME280;4931;44.874;-1.092;2023-06-05T02:12:15;101327.28;;;16.24;100.00
9784;BME280;4931;44.874;-1.092;2023-06-05T02:14:41;101314.56;;;16.23;100.00
9784;BME280;4931;44.874;-1.092;2023-06-05T02:17:10;101315.59;;;16.27;100.00
9784;BME280;4931;44.874;-1.092;2023-06-05T02:19:39;101308.63;;;16.30;100.00
9784;BME280;4931;44.874;-1.092;2023-06-05T02:22:04;101307.41;;;16.22;100.00
9784;BME280;4931;44.874;-1.092;2023-06-05T02:24:30;101299.19;;;16.31;100.00
9784;BME280;4931;44.874;-1.092;2023-06-05T02:26:55;101305.34;;;16.27;100.00
9784;BME280;4931;44.874;-1.092;2023-06-05T02:29:22;101307.41;;;16.22;100.00
9784;BME280;4931;44.874;-1.092;2023-06-05T02:31:48;101306.25;;;16.09;100.00
9784;BME280;4931;44.874;-1.092;2023-06-05T02:34:14;101300.75;;;15.90;100.00
9784;BME280;4931;44.874;-1.092;2023-06-05T02:36:42;101306.38;;;15.85;100.00
9784;BME280;4931;44.874;-1.092;2023-06-05T02:39:11;101309.88;;;15.71;100.00
9784;BME280;4931;44.874;-1.092;2023-06-05T02:41:37;101307.09;;;15.71;100.00
9784;BME280;4931;44.874;-1.092;2023-06-05T02:44:03;101307.66;;;15.73;100.00
9784;BME280;4931;44.874;-1.092;2023-06-05T02:46:28;101308.69;;;15.77;100.00
9784;BME280;4931;44.874;-1.092;2023-06-05T02:48:54;101306.22;;;15.76;100.00
9784;BME280;4931;44.874;-1.092;2023-06-05T02:51:19;101301.97;;;15.84;100.00
9784;BME280;4931;44.874;-1.092;2023-06-05T02:53:45;101312.44;;;15.87;100.00
9784;BME280;4931;44.874;-1.092;2023-06-05T02:56:11;101299.94;;;15.89;100.00
9784;BME280;4931;44.874;-1.092;2023-06-05T02:58:38;101303.19;;;15.91;100.00
9784;BME280;4931;44.874;-1.092;2023-06-05T03:01:05;101303.50;;;15.90;100.00
9784;BME280;4931;44.874;-1.092;2023-06-05T03:03:32;101300.16;;;15.93;100.00
9784;BME280;4931;44.874;-1.092;2023-06-05T03:06:01;101305.69;;;15.93;100.00
9784;BME280;4931;44.874;-1.092;2023-06-05T03:08:34;101301.78;;;15.94;100.00
9784;BME280;4931;44.874;-1.092;2023-06-05T03:11:03;101296.88;;;15.91;100.00
9784;BME280;4931;44.874;-1.092;2023-06-05T03:13:30;101298.06;;;15.85;100.00
9784;BME280;4931;44.874;-1.092;2023-06-05T03:15:56;101295.59;;;15.83;100.00
9784;BME280;4931;44.874;-1.092;2023-06-05T03:18:25;101287.34;;;15.78;100.00
9784;BME280;4931;44.874;-1.092;2023-06-05T03:20:52;101291.44;;;15.67;100.00
9784;BME280;4931;44.874;-1.092;2023-06-05T03:23:28;101305.13;;;15.58;100.00
9784;BME280;4931;44.874;-1.092;2023-06-05T03:25:54;101305.13;;;15.58;100.00
9784;BME280;4931;44.874;-1.092;2023-06-05T03:28:21;101301.78;;;15.42;100.00
9784;BME280;4931;44.874;-1.092;2023-06-05T03:30:47;101295.53;;;15.31;100.00
9784;BME280;4931;44.874;-1.092;2023-06-05T03:33:14;101287.88;;;15.28;100.00
9784;BME280;4931;44.874;-1.092;2023-06-05T03:35:41;101294.97;;;15.34;100.00
9784;BME280;4931;44.874;-1.092;2023-06-05T03:38:08;101292.28;;;15.29;100.00
9784;BME280;4931;44.874;-1.092;2023-06-05T03:40:34;101293.31;;;15.33;100.00
9784;BME280;4931;44.874;-1.092;2023-06-05T03:42:59;101287.19;;;15.36;100.00
9784;BME280;4931;44.874;-1.092;2023-06-05T03:45:25;101295.53;;;15.31;100.00
9784;BME280;4931;44.874;-1.092;2023-06-05T03:47:53;101286.75;;;15.29;100.00
9784;BME280;4931;44.874;-1.092;2023-06-05T03:50:20;101290.84;;;15.32;100.00
9784;BME280;4931;44.874;-1.092;2023-06-05T03:52:46;101300.09;;;15.22;100.00
9784;BME280;4931;44.874;-1.092;2023-06-05T03:55:18;101293.47;;;15.23;100.00
9784;BME280;4931;44.874;-1.092;2023-06-05T03:57:46;101303.94;;;15.26;100.00
9784;BME280;4931;44.874;-1.092;2023-06-05T04:00:12;101303.09;;;15.25;100.00
9784;BME280;4931;44.874;-1.092;2023-06-05T04:02:40;101303.03;;;15.12;100.00
9784;BME280;4931;44.874;-1.092;2023-06-05T04:05:06;101301.44;;;15.05;100.00
9784;BME280;4931;44.874;-1.092;2023-06-05T04:07:38;101301.97;;;15.07;100.00
9784;BME280;4931;44.874;-1.092;2023-06-05T04:10:04;101300.28;;;15.12;100.00
9784;BME280;4931;44.874;-1.092;2023-06-05T04:12:29;101300.78;;;15.14;100.00
9784;BME280;4931;44.874;-1.092;2023-06-05T04:14:55;101298.69;;;15.05;100.00
9784;BME280;4931;44.874;-1.092;2023-06-05T04:17:20;101299.25;;;15.02;100.00
9784;BME280;4931;44.874;-1.092;2023-06-05T04:19:46;101298.81;;;14.95;100.00
9784;BME280;4931;44.874;-1.092;2023-06-05T04:22:11;101296.59;;;14.97;100.00
9784;BME280;4931;44.874;-1.092;2023-06-05T04:24:37;101296.00;;;15.00;100.00
9784;BME280;4931;44.874;-1.092;2023-06-05T04:27:04;101301.66;;;14.90;100.00
9784;BME280;4931;44.874;-1.092;2023-06-05T04:29:30;101293.13;;;14.86;100.00
9784;BME280;4931;44.874;-1.092;2023-06-05T04:31:57;101286.84;;;14.81;100.00
9784;BME280;4931;44.874;-1.092;2023-06-05T04:34:23;101296.84;;;14.76;100.00
9784;BME280;4931;44.874;-1.092;2023-06-05T04:36:49;101297.91;;;14.81;100.00
9784;BME280;4931;44.874;-1.092;2023-06-05T04:39:17;101301.13;;;14.88;100.00
9784;BME280;4931;44.874;-1.092;2023-06-05T04:41:44;101296.38;;;14.93;100.00
9784;BME280;4931;44.874;-1.092;2023-06-05T04:44:12;101291.59;;;14.99;100.00
9784;BME280;4931;44.874;-1.092;2023-06-05T04:46:38;101293.75;;;15.02;100.00
9784;BME280;4931;44.874;-1.092;2023-06-05T04:49:06;101295.53;;;14.93;100.00
9784;BME280;4931;44.874;-1.092;2023-06-05T04:51:31;101300.00;;;14.89;100.00
9784;BME280;4931;44.874;-1.092;2023-06-05T04:53:58;101306.00;;;14.96;100.00
9784;BME280;4931;44.874;-1.092;2023-06-05T04:56:24;101299.13;;;14.93;100.00
9784;BME280;4931;44.874;-1.092;2023-06-05T04:58:51;101301.34;;;14.91;100.00
9784;BME280;4931;44.874;-1.092;2023-06-05T05:01:17;101298.47;;;15.02;100.00
9784;BME280;4931;44.874;-1.092;2023-06-05T05:03:43;101305.94;;;15.01;100.00
9784;BME280;4931;44.874;-1.092;2023-06-05T05:06:11;101305.53;;;14.89;100.00
9784;BME280;4931;44.874;-1.092;2023-06-05T05:08:39;101303.31;;;14.91;100.00
9784;BME280;4931;44.874;-1.092;2023-06-05T05:11:05;101306.06;;;14.91;100.00
9784;BME280;4931;44.874;-1.092;2023-06-05T05:13:30;101306.38;;;14.89;100.00
9784;BME280;4931;44.874;-1.092;2023-06-05T05:15:56;101302.81;;;14.84;100.00
9784;BME280;4931;44.874;-1.092;2023-06-05T05:18:21;101311.66;;;14.86;100.00
9784;BME280;4931;44.874;-1.092;2023-06-05T05:20:47;101304.47;;;14.85;100.00
9784;BME280;4931;44.874;-1.092;2023-06-05T05:23:14;101310.53;;;14.87;100.00
9784;BME280;4931;44.874;-1.092;2023-06-05T05:25:39;101314.84;;;14.93;100.00
9784;BME280;4931;44.874;-1.092;2023-06-05T05:28:05;101305.53;;;14.89;100.00
9784;BME280;4931;44.874;-1.092;2023-06-05T05:30:31;101310.97;;;14.94;100.00
9784;BME280;4931;44.874;-1.092;2023-06-05T05:32:58;101299.78;;;14.85;100.00
9784;BME280;4931;44.874;-1.092;2023-06-05T05:35:23;101303.31;;;14.91;100.00
9784;BME280;4931;44.874;-1.092;2023-06-05T05:37:49;101301.53;;;15.00;100.00
9784;BME280;4931;44.874;-1.092;2023-06-05T05:40:14;101302.63;;;14.99;100.00
9784;BME280;4931;44.874;-1.092;2023-06-05T05:42:41;101297.03;;;15.04;100.00
9784;BME280;4931;44.874;-1.092;2023-06-05T05:45:07;101293.69;;;15.07;100.00
9784;BME280;4931;44.874;-1.092;2023-06-05T05:47:33;101297.41;;;15.17;100.00
9784;BME280;4931;44.874;-1.092;2023-06-05T05:49:59;101296.53;;;15.21;100.00
9784;BME280;4931;44.874;-1.092;2023-06-05T05:52:24;101298.19;;;15.22;100.00
9784;BME280;4931;44.874;-1.092;2023-06-05T05:54:50;101300.88;;;15.27;100.00
9784;BME280;4931;44.874;-1.092;2023-06-05T05:57:17;101301.06;;;15.31;100.00
9784;BME280;4931;44.874;-1.092;2023-06-05T05:59:43;101295.28;;;15.33;100.00
9784;BME280;4931;44.874;-1.092;2023-06-05T06:02:10;101300.56;;;15.29;100.00
9784;BME280;4931;44.874;-1.092;2023-06-05T06:04:38;101311.31;;;15.31;100.00
9784;BME280;4931;44.874;-1.092;2023-06-05T06:07:04;101304.09;;;15.16;100.00
9784;BME280;4931;44.874;-1.092;2023-06-05T06:09:30;101308.88;;;15.29;100.00
9784;BME280;4931;44.874;-1.092;2023-06-05T06:11:56;101305.88;;;15.44;100.00
9784;BME280;4931;44.874;-1.092;2023-06-05T06:14:22;101315.72;;;15.51;100.00
9784;BME280;4931;44.874;-1.092;2023-06-05T06:16:48;101310.19;;;15.51;100.00
9784;BME280;4931;44.874;-1.092;2023-06-05T06:19:15;101315.63;;;15.56;100.00
9784;BME280;4931;44.874;-1.092;2023-06-05T06:21:42;101313.34;;;15.63;100.00
9784;BME280;4931;44.874;-1.092;2023-06-05T06:24:08;101318.34;;;15.61;100.00
9784;BME280;4931;44.874;-1.092;2023-06-05T06:26:34;101321.00;;;15.66;100.00
9784;BME280;4931;44.874;-1.092;2023-06-05T06:29:02;101315.94;;;15.73;100.00
9784;BME280;4931;44.874;-1.092;2023-06-05T06:31:27;101313.31;;;15.82;100.00
9784;BME280;4931;44.874;-1.092;2023-06-05T06:33:53;101311.81;;;15.90;100.00
9784;BME280;4931;44.874;-1.092;2023-06-05T06:36:19;101316.13;;;15.96;100.00
9784;BME280;4931;44.874;-1.092;2023-06-05T06:38:45;101315.34;;;15.96;100.00
9784;BME280;4931;44.874;-1.092;2023-06-05T06:41:10;101319.25;;;16.08;100.00
9784;BME280;4931;44.874;-1.092;2023-06-05T06:43:36;101313.13;;;16.12;100.00
9784;BME280;4931;44.874;-1.092;2023-06-05T06:46:01;101310.53;;;16.15;100.00
9784;BME280;4931;44.874;-1.092;2023-06-05T06:48:27;101311.50;;;16.24;100.00
9784;BME280;4931;44.874;-1.092;2023-06-05T06:50:52;101309.28;;;16.40;100.00
9784;BME280;4931;44.874;-1.092;2023-06-05T06:53:18;101317.06;;;16.52;100.00
9784;BME280;4931;44.874;-1.092;2023-06-05T06:55:44;101318.31;;;16.60;100.00
9784;BME280;4931;44.874;-1.092;2023-06-05T06:58:09;101315.22;;;16.62;100.00
9784;BME280;4931;44.874;-1.092;2023-06-05T07:00:35;101319.50;;;16.68;100.00
9784;BME280;4931;44.874;-1.092;2023-06-05T07:03:01;101319.13;;;16.74;100.00
9784;BME280;4931;44.874;-1.092;2023-06-05T07:05:27;101312.34;;;16.81;100.00
9784;BME280;4931;44.874;-1.092;2023-06-05T07:07:52;101318.91;;;16.99;100.00
9784;BME280;4931;44.874;-1.092;2023-06-05T07:10:18;101327.50;;;17.11;100.00
9784;BME280;4931;44.874;-1.092;2023-06-05T07:12:43;101326.50;;;17.21;100.00
9784;BME280;4931;44.874;-1.092;2023-06-05T07:15:09;101320.84;;;17.26;100.00
9784;BME280;4931;44.874;-1.092;2023-06-05T07:17:35;101328.28;;;17.39;100.00
9784;BME280;4931;44.874;-1.092;2023-06-05T07:20:02;101328.53;;;17.52;100.00
9784;BME280;4931;44.874;-1.092;2023-06-05T07:22:30;101318.38;;;17.61;100.00
9784;BME280;4931;44.874;-1.092;2023-06-05T07:24:56;101317.84;;;17.82;100.00
9784;BME280;4931;44.874;-1.092;2023-06-05T07:27:22;101316.97;;;17.95;100.00
9784;BME280;4931;44.874;-1.092;2023-06-05T07:29:48;101310.56;;;18.08;100.00
9784;BME280;4931;44.874;-1.092;2023-06-05T07:32:13;101315.19;;;18.22;100.00
9784;BME280;4931;44.874;-1.092;2023-06-05T07:34:39;101311.94;;;19.00;100.00
9784;BME280;4931;44.874;-1.092;2023-06-05T07:37:05;101315.91;;;19.52;100.00
9784;BME280;4931;44.874;-1.092;2023-06-05T07:39:32;101305.75;;;19.47;100.00
9784;BME280;4931;44.874;-1.092;2023-06-05T07:41:58;101310.81;;;19.54;100.00
9784;BME280;4931;44.874;-1.092;2023-06-05T07:44:23;101306.56;;;19.74;100.00
9784;BME280;4931;44.874;-1.092;2023-06-05T07:46:50;101309.50;;;19.86;100.00
9784;BME280;4931;44.874;-1.092;2023-06-05T07:49:16;101308.84;;;19.81;100.00
9784;BME280;4931;44.874;-1.092;2023-06-05T07:51:43;101315.88;;;19.87;100.00
9784;BME280;4931;44.874;-1.092;2023-06-05T07:54:10;101316.69;;;20.05;100.00
9784;BME280;4931;44.874;-1.092;2023-06-05T07:56:36;101316.13;;;20.29;100.00
9784;BME280;4931;44.874;-1.092;2023-06-05T07:59:02;101309.03;;;20.40;100.00
9784;BME280;4931;44.874;-1.092;2023-06-05T08:01:32;101307.59;;;20.34;100.00
9784;BME280;4931;44.874;-1.092;2023-06-05T08:04:02;101303.00;;;20.38;100.00
9784;BME280;4931;44.874;-1.092;2023-06-05T08:06:28;101312.31;;;20.43;100.00
9784;BME280;4931;44.874;-1.092;2023-06-05T08:08:55;101307.94;;;20.71;100.00
9784;BME280;4931;44.874;-1.092;2023-06-05T08:11:20;101319.19;;;20.84;100.00
9784;BME280;4931;44.874;-1.092;2023-06-05T08:13:46;101318.81;;;20.94;100.00
9784;BME280;4931;44.874;-1.092;2023-06-05T08:16:11;101313.00;;;21.08;100.00
9784;BME280;4931;44.874;-1.092;2023-06-05T08:18:37;101315.59;;;21.34;100.00
9784;BME280;4931;44.874;-1.092;2023-06-05T08:21:02;101313.69;;;21.68;100.00
9784;BME280;4931;44.874;-1.092;2023-06-05T08:23:28;101307.06;;;22.07;100.00
9784;BME280;4931;44.874;-1.092;2023-06-05T08:25:54;101313.16;;;22.33;100.00
9784;BME280;4931;44.874;-1.092;2023-06-05T08:28:20;101311.59;;;22.45;100.00
9784;BME280;4931;44.874;-1.092;2023-06-05T08:30:45;101310.44;;;22.58;100.00
9784;BME280;4931;44.874;-1.092;2023-06-05T08:33:11;101309.38;;;22.75;100.00
9784;BME280;4931;44.874;-1.092;2023-06-05T08:35:40;101310.31;;;22.79;100.00
9784;BME280;4931;44.874;-1.092;2023-06-05T08:38:05;101315.31;;;22.61;100.00
9784;BME280;4931;44.874;-1.092;2023-06-05T08:40:32;101313.81;;;22.64;100.00
9784;BME280;4931;44.874;-1.092;2023-06-05T08:43:00;101319.75;;;22.50;100.00
9784;BME280;4931;44.874;-1.092;2023-06-05T08:45:25;101320.91;;;22.49;100.00
9784;BME280;4931;44.874;-1.092;2023-06-05T08:47:51;101319.28;;;22.60;100.00
9784;BME280;4931;44.874;-1.092;2023-06-05T08:50:19;101321.59;;;22.70;100.00
9784;BME280;4931;44.874;-1.092;2023-06-05T08:52:45;101315.91;;;22.54;100.00
9784;BME280;4931;44.874;-1.092;2023-06-05T08:55:11;101319.16;;;22.44;100.00
9784;BME280;4931;44.874;-1.092;2023-06-05T08:57:41;101311.66;;;22.24;100.00
9784;BME280;4931;44.874;-1.092;2023-06-05T09:00:08;101314.66;;;22.18;100.00
9784;BME280;4931;44.874;-1.092;2023-06-05T09:02:40;101315.94;;;22.21;100.00
9784;BME280;4931;44.874;-1.092;2023-06-05T09:05:12;101313.47;;;22.41;100.00
9784;BME280;4931;44.874;-1.092;2023-06-05T09:07:38;101312.88;;;22.60;100.00
9784;BME280;4931;44.874;-1.092;2023-06-05T09:10:21;101307.53;;;22.67;100.00
9784;BME280;4931;44.874;-1.092;2023-06-05T09:12:57;101312.06;;;22.71;100.00
9784;BME280;4931;44.874;-1.092;2023-06-05T09:15:24;101319.97;;;22.57;100.00
9784;BME280;4931;44.874;-1.092;2023-06-05T09:18:11;101313.22;;;22.70;100.00
9784;BME280;4931;44.874;-1.092;2023-06-05T09:20:39;101304.84;;;22.58;100.00
9784;BME280;4931;44.874;-1.092;2023-06-05T09:25:59;101308.56;;;22.50;100.00
9784;BME280;4931;44.874;-1.092;2023-06-05T09:28:25;101309.50;;;22.66;100.00
9784;BME280;4931;44.874;-1.092;2023-06-05T09:30:59;101313.34;;;22.74;100.00
9784;BME280;4931;44.874;-1.092;2023-06-05T09:33:29;101313.47;;;22.53;100.00
9784;BME280;4931;44.874;-1.092;2023-06-05T09:38:30;101306.25;;;22.64;100.00
9784;BME280;4931;44.874;-1.092;2023-06-05T09:43:28;101303.22;;;22.69;100.00
9784;BME280;4931;44.874;-1.092;2023-06-05T09:45:54;101307.63;;;22.70;100.00
9784;BME280;4931;44.874;-1.092;2023-06-05T09:48:20;101306.69;;;22.91;100.00
9784;BME280;4931;44.874;-1.092;2023-06-05T09:50:45;101309.47;;;23.03;100.00
9784;BME280;4931;44.874;-1.092;2023-06-05T09:53:15;101311.31;;;23.12;100.00
9784;BME280;4931;44.874;-1.092;2023-06-05T09:55:41;101306.41;;;23.33;100.00
9784;BME280;4931;44.874;-1.092;2023-06-05T09:58:11;101306.44;;;23.62;100.00
9784;BME280;4931;44.874;-1.092;2023-06-05T10:00:39;101309.59;;;23.60;100.00
9784;BME280;4931;44.874;-1.092;2023-06-05T10:03:14;101313.84;;;23.70;100.00
9784;BME280;4931;44.874;-1.092;2023-06-05T10:05:43;101300.47;;;23.63;100.00
9784;BME280;4931;44.874;-1.092;2023-06-05T10:08:11;101312.41;;;23.48;100.00
9784;BME280;4931;44.874;-1.092;2023-06-05T10:10:38;101308.06;;;23.63;100.00
9784;BME280;4931;44.874;-1.092;2023-06-05T10:13:04;101317.50;;;23.70;100.00
9784;BME280;4931;44.874;-1.092;2023-06-05T10:15:31;101306.03;;;23.76;100.00
9784;BME280;4931;44.874;-1.092;2023-06-05T10:17:57;101320.28;;;23.70;100.00
9784;BME280;4931;44.874;-1.092;2023-06-05T10:20:24;101313.97;;;23.74;100.00
9784;BME280;4931;44.874;-1.092;2023-06-05T10:22:50;101316.09;;;23.64;100.00
9784;BME280;4931;44.874;-1.092;2023-06-05T10:25:17;101319.94;;;23.72;100.00
9784;BME280;4931;44.874;-1.092;2023-06-05T10:33:53;101321.25;;;24.35;100.00
9784;BME280;4931;44.874;-1.092;2023-06-05T10:39:24;101313.47;;;24.76;100.00
9784;BME280;4931;44.874;-1.092;2023-06-05T10:41:51;101308.44;;;25.01;100.00
9784;BME280;4931;44.874;-1.092;2023-06-05T10:44:17;101309.25;;;24.66;100.00
9784;BME280;4931;44.874;-1.092;2023-06-05T10:46:42;101310.25;;;25.10;100.00
9784;BME280;4931;44.874;-1.092;2023-06-05T10:49:15;101307.78;;;25.08;100.00
9784;BME280;4931;44.874;-1.092;2023-06-05T10:51:44;101308.75;;;25.16;100.00
9784;BME280;4931;44.874;-1.092;2023-06-05T10:59:34;101303.56;;;24.98;100.00
9784;BME280;4931;44.874;-1.092;2023-06-05T11:17:48;101284.91;;;26.50;100.00
9784;BME280;4931;44.874;-1.092;2023-06-05T11:27:47;101285.53;;;27.51;100.00
9784;BME280;4931;44.874;-1.092;2023-06-05T11:30:20;101284.69;;;28.22;100.00
9784;BME280;4931;44.874;-1.092;2023-06-05T11:32:46;101279.75;;;27.74;100.00
9784;BME280;4931;44.874;-1.092;2023-06-05T11:35:13;101282.31;;;27.53;100.00
9784;BME280;4931;44.874;-1.092;2023-06-05T11:37:39;101276.34;;;27.58;100.00
9784;BME280;4931;44.874;-1.092;2023-06-05T11:40:08;101284.06;;;27.61;100.00
9784;BME280;4931;44.874;-1.092;2023-06-05T11:42:38;101275.16;;;27.28;100.00
9784;BME280;4931;44.874;-1.092;2023-06-05T11:45:14;101270.47;;;27.09;100.00
9784;BME280;4931;44.874;-1.092;2023-06-05T11:47:40;101273.06;;;27.52;100.00
9784;BME280;4931;44.874;-1.092;2023-06-05T11:50:09;101283.44;;;27.78;100.00
9784;BME280;4931;44.874;-1.092;2023-06-05T11:52:35;101272.16;;;27.78;100.00
9784;BME280;4931;44.874;-1.092;2023-06-05T11:55:15;101272.56;;;28.18;100.00
9784;BME280;4931;44.874;-1.092;2023-06-05T11:57:42;101272.28;;;28.30;100.00
9784;BME280;4931;44.874;-1.092;2023-06-05T12:00:09;101267.75;;;28.71;100.00
9784;BME280;4931;44.874;-1.092;2023-06-05T12:02:37;101268.88;;;29.25;100.00
9784;BME280;4931;44.874;-1.092;2023-06-05T12:05:05;101266.63;;;28.79;100.00
9784;BME280;4931;44.874;-1.092;2023-06-05T12:07:32;101260.69;;;28.98;100.00
9784;BME280;4931;44.874;-1.092;2023-06-05T12:10:02;101265.22;;;29.21;100.00
9784;BME280;4931;44.874;-1.092;2023-06-05T12:12:29;101256.69;;;29.14;100.00
9784;BME280;4931;44.874;-1.092;2023-06-05T12:14:55;101267.47;;;28.90;100.00
9784;BME280;4931;44.874;-1.092;2023-06-05T12:17:21;101264.81;;;28.56;100.00
9784;BME280;4931;44.874;-1.092;2023-06-05T12:19:53;101255.75;;;28.32;100.00
9784;BME280;4931;44.874;-1.092;2023-06-05T12:22:18;101251.13;;;28.58;100.00
9784;BME280;4931;44.874;-1.092;2023-06-05T12:24:44;101252.03;;;28.70;100.00
9784;BME280;4931;44.874;-1.092;2023-06-05T12:27:10;101246.31;;;28.62;100.00
9784;BME280;4931;44.874;-1.092;2023-06-05T12:29:38;101248.03;;;28.74;100.00
9784;BME280;4931;44.874;-1.092;2023-06-05T12:32:20;101249.75;;;28.93;100.00
9784;BME280;4931;44.874;-1.092;2023-06-05T12:34:49;101242.81;;;28.80;100.00
9784;BME280;4931;44.874;-1.092;2023-06-05T12:37:29;101241.66;;;28.88;100.00
9784;BME280;4931;44.874;-1.092;2023-06-05T12:39:57;101228.78;;;28.91;100.00
9784;BME280;4931;44.874;-1.092;2023-06-05T12:42:24;101229.69;;;29.20;100.00
9784;BME280;4931;44.874;-1.092;2023-06-05T12:44:49;101226.13;;;29.27;100.00
9784;BME280;4931;44.874;-1.092;2023-06-05T12:47:15;101225.69;;;29.21;100.00
9784;BME280;4931;44.874;-1.092;2023-06-05T12:49:41;101220.44;;;29.20;100.00
9784;BME280;4931;44.874;-1.092;2023-06-05T12:52:06;101217.47;;;28.94;100.00
9784;BME280;4931;44.874;-1.092;2023-06-05T12:54:35;101211.06;;;29.05;100.00
9784;BME280;4931;44.874;-1.092;2023-06-05T12:57:01;101211.06;;;29.05;100.00
9784;BME280;4931;44.874;-1.092;2023-06-05T12:59:27;101213.91;;;29.05;100.00
9784;BME280;4931;44.874;-1.092;2023-06-05T13:01:53;101203.81;;;29.00;100.00
9784;BME280;4931;44.874;-1.092;2023-06-05T13:04:18;101200.56;;;28.98;100.00
9784;BME280;4931;44.874;-1.092;2023-06-05T13:06:44;101207.09;;;29.20;100.00
9784;BME280;4931;44.874;-1.092;2023-06-05T13:09:09;101201.97;;;28.63;100.00
9784;BME280;4931;44.874;-1.092;2023-06-05T13:11:35;101203.06;;;28.44;100.00
9784;BME280;4931;44.874;-1.092;2023-06-05T13:14:00;101191.94;;;28.10;100.00
9784;BME280;4931;44.874;-1.092;2023-06-05T13:16:26;101187.09;;;28.07;100.00
9784;BME280;4931;44.874;-1.092;2023-06-05T13:18:52;101178.44;;;28.37;100.00
9784;BME280;4931;44.874;-1.092;2023-06-05T13:21:17;101174.63;;;28.67;100.00
9784;BME280;4931;44.874;-1.092;2023-06-05T13:23:43;101180.06;;;28.42;100.00
9784;BME280;4931;44.874;-1.092;2023-06-05T13:26:08;101174.09;;;27.98;100.00
9784;BME280;4931;44.874;-1.092;2023-06-05T13:28:34;101169.72;;;27.60;100.00
9784;BME280;4931;44.874;-1.092;2023-06-05T13:30:59;101176.59;;;27.62;100.00
9784;BME280;4931;44.874;-1.092;2023-06-05T13:33:27;101171.22;;;27.46;100.00
9784;BME280;4931;44.874;-1.092;2023-06-05T13:35:52;101169.81;;;27.71;100.00